aviador You're here:

LEIB Decoded Metar

IBIZA in SPAIN
Report Time2017-12-18 08:30:00
UTC Time2017-12-18 09:02:02
Flight Rules vfr VFR
WindVRB at 02 kt
Visibility9999 m
Phenomena:N/A
Clouds:Few 030 Hf
Expected CloudBase > 1,200 ft AGL from Temp-Dew spread
CeilingNone
Temp07°C (ISA -8)
Dew Point04°C (81% RH)
AAT5.0°C
QNH1030 hPa
Density Alt-1,378 ft
Elevation39 ft
Report Wrong Elevation
Raw Report
LEIB 180830Z VRB02KT 9999 FEW030 07/04 Q1030 NOSIG=

Extra information for LEIB:More info

Metar Taf Metar & Taf Last 4 Metars F.Rules Stats Wind Profile Meteogram Temp Stats Airport Information Weather charts Add Link Nearby VenuesMetar ALERT Operation Metar Decoded Social comments